Time;durP1;ratioP1;P1;durP2;ratioP2;P2;SDS_P1;SDS_P2;PMS_P1;PMS_P2;Temp;Humidity;BMP_temperature;BMP_pressure;BME280_temperature;BME280_humidity;BME280_pressure;Samples;Min_cycle;Max_cycle;Signal;HPM_P1;HPM_P2
2022/09/29 00:01:49;;;;;;;;;;;2.30;99.90;;;;;;5105103;27;20051;-55
2022/09/29 00:04:29;;;;;;;;;;;2.30;99.90;;;;;;5146141;27;20361;-55
2022/09/29 00:07:09;;;;;;;;;;;2.10;99.90;;;;;;5105063;27;19926;-55
2022/09/29 00:09:48;;;;;;;;;;;2.10;99.90;;;;;;5104791;27;20138;-55
2022/09/29 00:12:28;;;;;;;;;;;2.00;99.90;;;;;;5090599;27;19954;-55
2022/09/29 00:15:08;;;;;;;;;;;2.00;99.90;;;;;;5105365;27;19953;-55
2022/09/29 00:17:49;;;;;;;;;;;2.20;99.90;;;;;;5105401;27;19931;-55
2022/09/29 00:20:29;;;;;;;;;;;2.20;99.90;;;;;;5104567;27;19926;-55
2022/09/29 00:23:09;;;;;;;;;;;2.40;99.90;;;;;;5104989;27;19957;-55
2022/09/29 00:25:49;;;;;;;;;;;2.30;99.90;;;;;;5125740;27;19912;-54
2022/09/29 00:28:29;;;;;;;;;;;2.30;99.90;;;;;;5103129;27;20378;-55
2022/09/29 00:31:10;;;;;;;;;;;2.20;99.90;;;;;;5101090;27;19912;-55
2022/09/29 00:33:51;;;;;;;;;;;2.30;99.90;;;;;;5104763;27;19961;-56
2022/09/29 00:36:31;;;;;;;;;;;2.30;99.90;;;;;;5125001;27;19915;-55
2022/09/29 00:39:11;;;;;;;;;;;2.20;99.90;;;;;;5124926;27;19919;-54
2022/09/29 00:41:51;;;;;;;;;;;2.20;99.90;;;;;;5117167;27;20380;-55
2022/09/29 00:44:48;;;;;;;;;;;2.10;99.90;;;;;;5125534;27;19912;-55
2022/09/29 00:47:28;;;;;;;;;;;2.10;99.90;;;;;;5104593;27;19912;-56
2022/09/29 00:50:12;;;;;;;;;;;2.10;99.90;;;;;;5104411;27;19930;-56
2022/09/29 00:52:55;;;;;;;;;;;2.10;99.90;;;;;;5104828;27;19946;-54
2022/09/29 00:55:38;;;;;;;;;;;2.10;99.90;;;;;;5125336;27;19916;-55
2022/09/29 00:58:21;;;;;;;;;;;2.10;99.90;;;;;;5084930;28;20111;-55
2022/09/29 01:01:02;;;;;;;;;;;1.90;99.90;;;;;;5102553;27;19915;-55
2022/09/29 01:03:43;;;;;;;;;;;1.90;99.90;;;;;;5105556;27;19946;-55
2022/09/29 01:06:25;;;;;;;;;;;1.80;99.90;;;;;;5104862;27;19916;-55
2022/09/29 01:09:07;;;;;;;;;;;1.70;99.90;;;;;;5104187;27;19916;-55
2022/09/29 01:11:48;;;;;;;;;;;1.70;99.90;;;;;;5125500;27;19945;-55
2022/09/29 01:14:28;;;;;;;;;;;1.60;99.90;;;;;;5104727;27;20088;-55
2022/09/29 01:17:09;;;;;;;;;;;1.60;99.90;;;;;;5104785;27;19926;-55
2022/09/29 01:19:52;;;;;;;;;;;1.60;99.90;;;;;;5124884;27;19916;-55
2022/09/29 01:22:44;;;;;;;;;;;1.60;99.90;;;;;;5117265;27;19919;-55
2022/09/29 01:25:34;;;;;;;;;;;1.60;99.90;;;;;;5150187;27;19949;-55
2022/09/29 01:28:32;;;;;;;;;;;1.60;99.90;;;;;;5101997;27;20096;-55
2022/09/29 01:31:17;;;;;;;;;;;1.70;99.90;;;;;;5100642;27;19954;-55
2022/09/29 01:34:01;;;;;;;;;;;1.70;99.90;;;;;;5084382;28;20390;-55
2022/09/29 01:36:45;;;;;;;;;;;1.70;99.90;;;;;;5104445;27;19927;-53
2022/09/29 01:39:27;;;;;;;;;;;1.60;99.90;;;;;;5124247;27;19916;-55
2022/09/29 01:42:09;;;;;;;;;;;1.60;99.90;;;;;;5153775;27;19915;-55
2022/09/29 01:44:52;;;;;;;;;;;1.60;99.90;;;;;;5125132;27;19916;-55
2022/09/29 01:47:36;;;;;;;;;;;1.60;99.90;;;;;;5123495;27;19920;-55
2022/09/29 01:50:18;;;;;;;;;;;1.60;99.90;;;;;;5102757;27;19950;-55
2022/09/29 01:53:01;;;;;;;;;;;1.60;99.90;;;;;;5099659;27;19912;-53
2022/09/29 01:55:46;;;;;;;;;;;1.70;99.90;;;;;;5123471;27;19916;-55
2022/09/29 01:58:30;;;;;;;;;;;1.90;99.90;;;;;;5103420;27;20319;-55
2022/09/29 02:01:11;;;;;;;;;;;2.10;99.90;;;;;;5103278;27;19961;-55
2022/09/29 02:03:52;;;;;;;;;;;2.40;99.90;;;;;;5116391;27;19926;-55
2022/09/29 02:06:36;;;;;;;;;;;2.60;99.90;;;;;;5123730;27;19912;-55
2022/09/29 02:09:19;;;;;;;;;;;2.80;99.90;;;;;;5103399;27;19916;-55
2022/09/29 02:12:01;;;;;;;;;;;2.90;99.90;;;;;;5125231;27;20377;-55
2022/09/29 02:14:42;;;;;;;;;;;3.00;99.90;;;;;;5125529;27;19912;-55
2022/09/29 02:17:25;;;;;;;;;;;3.10;99.90;;;;;;5104599;27;19912;-55
2022/09/29 02:20:17;;;;;;;;;;;3.00;99.90;;;;;;5104225;27;19926;-55
2022/09/29 02:22:57;;;;;;;;;;;3.10;99.90;;;;;;5121440;27;20411;-55
2022/09/29 02:25:38;;;;;;;;;;;3.20;99.90;;;;;;5125519;27;19953;-55
2022/09/29 02:28:19;;;;;;;;;;;3.30;99.90;;;;;;5152652;27;20404;-55
2022/09/29 02:30:59;;;;;;;;;;;3.50;99.90;;;;;;5104302;27;19916;-56
2022/09/29 02:33:38;;;;;;;;;;;3.50;99.90;;;;;;5104660;27;19930;-55
2022/09/29 02:36:25;;;;;;;;;;;3.60;99.90;;;;;;5105122;27;19949;-55
2022/09/29 02:39:11;;;;;;;;;;;3.50;99.90;;;;;;5124631;27;19916;-55
2022/09/29 02:41:58;;;;;;;;;;;3.40;99.90;;;;;;5105176;27;19926;-55
2022/09/29 02:44:44;;;;;;;;;;;3.40;99.90;;;;;;5104905;27;20515;-55
2022/09/29 02:47:35;;;;;;;;;;;3.40;99.90;;;;;;5104925;27;20600;-55
2022/09/29 02:50:24;;;;;;;;;;;3.40;99.90;;;;;;5104433;27;20378;-55
2022/09/29 02:53:10;;;;;;;;;;;3.50;99.90;;;;;;5121068;27;19912;-55
2022/09/29 02:55:56;;;;;;;;;;;3.50;99.90;;;;;;5105333;27;19954;-55
2022/09/29 02:58:38;;;;;;;;;;;3.60;99.90;;;;;;5104627;27;20324;-55
2022/09/29 03:01:17;;;;;;;;;;;3.70;99.90;;;;;;5104874;27;19926;-55
2022/09/29 03:03:57;;;;;;;;;;;3.80;99.90;;;;;;5105142;27;19953;-55
2022/09/29 03:06:37;;;;;;;;;;;3.90;99.90;;;;;;5104980;27;19916;-55
2022/09/29 03:09:17;;;;;;;;;;;4.00;99.90;;;;;;5104225;27;20479;-55
2022/09/29 03:11:57;;;;;;;;;;;4.00;99.90;;;;;;5105399;27;19912;-55
2022/09/29 03:14:36;;;;;;;;;;;4.00;99.90;;;;;;5125477;27;19912;-55
2022/09/29 03:17:16;;;;;;;;;;;4.00;99.90;;;;;;5104733;27;19912;-55
2022/09/29 03:19:56;;;;;;;;;;;4.10;99.90;;;;;;5124978;27;19916;-55
2022/09/29 03:22:36;;;;;;;;;;;4.10;99.90;;;;;;5128095;27;20076;-55
2022/09/29 03:25:16;;;;;;;;;;;4.10;99.90;;;;;;5105384;27;19916;-55
2022/09/29 03:27:56;;;;;;;;;;;4.10;99.90;;;;;;5082920;28;19913;-55
2022/09/29 03:30:35;;;;;;;;;;;4.20;99.90;;;;;;5124699;27;19912;-55
2022/09/29 03:33:17;;;;;;;;;;;4.20;99.90;;;;;;5125615;27;19915;-55
2022/09/29 03:35:57;;;;;;;;;;;4.20;99.90;;;;;;5112622;27;19919;-55
2022/09/29 03:38:37;;;;;;;;;;;4.20;99.90;;;;;;5124077;27;20077;-55
2022/09/29 03:41:16;;;;;;;;;;;4.20;99.90;;;;;;5104993;27;19946;-55
2022/09/29 03:43:56;;;;;;;;;;;4.30;99.90;;;;;;5125532;27;19911;-56
2022/09/29 03:46:36;;;;;;;;;;;4.30;99.90;;;;;;5105024;27;20312;-55
2022/09/29 03:49:16;;;;;;;;;;;4.30;99.90;;;;;;5104248;27;19912;-55
2022/09/29 03:51:57;;;;;;;;;;;4.40;99.90;;;;;;5125890;27;19925;-56
2022/09/29 03:54:37;;;;;;;;;;;4.40;99.90;;;;;;5104974;27;20331;-56
2022/09/29 03:57:17;;;;;;;;;;;4.40;99.90;;;;;;5104846;27;19926;-55
2022/09/29 03:59:57;;;;;;;;;;;4.40;99.90;;;;;;5124493;27;19918;-55
2022/09/29 04:02:37;;;;;;;;;;;4.40;99.90;;;;;;5103921;27;19916;-55
2022/09/29 04:05:17;;;;;;;;;;;4.40;99.90;;;;;;5104589;27;19946;-55
2022/09/29 04:07:56;;;;;;;;;;;4.50;99.90;;;;;;5125173;27;19915;-55
2022/09/29 04:10:36;;;;;;;;;;;4.60;99.90;;;;;;5110305;27;20434;-55
2022/09/29 04:13:16;;;;;;;;;;;4.60;99.90;;;;;;5105039;27;19954;-55
2022/09/29 04:15:59;;;;;;;;;;;4.60;99.90;;;;;;5126088;27;19911;-55
2022/09/29 04:18:39;;;;;;;;;;;4.60;99.90;;;;;;5104261;27;19912;-56
2022/09/29 04:21:18;;;;;;;;;;;4.60;99.90;;;;;;5120914;27;19913;-55
2022/09/29 04:23:58;;;;;;;;;;;4.50;99.90;;;;;;5104862;27;19916;-55
2022/09/29 04:26:39;;;;;;;;;;;4.50;99.90;;;;;;5082463;28;19917;-55
2022/09/29 04:29:20;;;;;;;;;;;4.50;99.90;;;;;;5103562;27;19912;-55
2022/09/29 04:31:59;;;;;;;;;;;4.50;99.90;;;;;;5104947;27;19912;-54
2022/09/29 04:34:39;;;;;;;;;;;4.50;99.90;;;;;;5105454;27;19912;-55
2022/09/29 04:37:19;;;;;;;;;;;4.50;99.90;;;;;;5084432;28;20324;-55
2022/09/29 04:39:59;;;;;;;;;;;4.50;99.90;;;;;;5132660;27;19949;-55
2022/09/29 04:42:39;;;;;;;;;;;4.50;99.90;;;;;;5105124;27;19912;-55
2022/09/29 04:45:19;;;;;;;;;;;4.50;99.90;;;;;;5104555;27;19954;-55
2022/09/29 04:47:58;;;;;;;;;;;4.50;99.90;;;;;;5125168;27;19912;-55
2022/09/29 04:50:38;;;;;;;;;;;4.50;99.90;;;;;;5124717;27;19912;-55
2022/09/29 04:53:18;;;;;;;;;;;4.60;99.90;;;;;;5084578;28;20382;-55
2022/09/29 04:55:58;;;;;;;;;;;4.70;99.90;;;;;;5125102;27;19912;-55
2022/09/29 04:58:38;;;;;;;;;;;4.70;99.90;;;;;;5104637;27;19926;-55
2022/09/29 05:01:18;;;;;;;;;;;4.70;99.90;;;;;;5120631;27;19912;-55
2022/09/29 05:03:58;;;;;;;;;;;4.70;99.90;;;;;;5126115;27;19922;-55
2022/09/29 05:06:38;;;;;;;;;;;4.80;99.90;;;;;;5105019;27;20427;-55
2022/09/29 05:09:19;;;;;;;;;;;4.70;99.90;;;;;;5130935;27;19918;-55
2022/09/29 05:11:59;;;;;;;;;;;4.70;99.90;;;;;;5115153;27;19939;-55
2022/09/29 05:14:38;;;;;;;;;;;4.70;99.90;;;;;;5125084;27;19953;-55
2022/09/29 05:17:18;;;;;;;;;;;4.70;99.90;;;;;;5125000;27;19912;-55
2022/09/29 05:19:58;;;;;;;;;;;4.70;99.90;;;;;;5122499;27;19919;-55
2022/09/29 05:22:38;;;;;;;;;;;4.80;99.90;;;;;;5125482;27;19916;-55
2022/09/29 05:25:18;;;;;;;;;;;4.90;99.90;;;;;;5125274;27;20409;-55
2022/09/29 05:27:57;;;;;;;;;;;5.00;99.90;;;;;;5125059;27;19911;-55
2022/09/29 05:30:38;;;;;;;;;;;5.20;99.90;;;;;;5123037;27;19934;-55
2022/09/29 05:33:17;;;;;;;;;;;5.40;99.90;;;;;;5125757;27;19912;-55
2022/09/29 05:35:57;;;;;;;;;;;5.50;99.90;;;;;;5104953;27;19926;-55
2022/09/29 05:38:37;;;;;;;;;;;5.70;99.90;;;;;;5125089;27;19916;-55
2022/09/29 05:41:21;;;;;;;;;;;5.90;99.90;;;;;;5098786;27;20402;-55
2022/09/29 05:44:01;;;;;;;;;;;6.00;99.90;;;;;;5083366;28;20378;-55
2022/09/29 05:46:41;;;;;;;;;;;6.10;99.90;;;;;;5123839;27;19911;-55
2022/09/29 05:49:22;;;;;;;;;;;6.20;99.90;;;;;;5102845;27;19926;-56
2022/09/29 05:52:02;;;;;;;;;;;6.30;99.90;;;;;;5103981;27;20311;-55
2022/09/29 05:54:42;;;;;;;;;;;6.30;99.90;;;;;;5123969;27;19911;-56
2022/09/29 05:57:22;;;;;;;;;;;6.30;99.90;;;;;;5104673;27;19913;-55
2022/09/29 06:00:02;;;;;;;;;;;6.40;99.90;;;;;;5124849;27;19926;-55
2022/09/29 06:02:51;;;;;;;;;;;6.40;99.90;;;;;;5158791;27;20306;-55
2022/09/29 06:05:31;;;;;;;;;;;6.40;99.90;;;;;;5124999;27;20323;-55
2022/09/29 06:08:11;;;;;;;;;;;6.50;99.90;;;;;;5160800;27;19929;-55
2022/09/29 06:10:51;;;;;;;;;;;6.50;99.90;;;;;;5137466;27;19916;-55
2022/09/29 06:13:31;;;;;;;;;;;6.60;99.90;;;;;;5105097;27;20088;-55
2022/09/29 06:16:11;;;;;;;;;;;6.70;99.90;;;;;;5125476;27;19912;-55
2022/09/29 06:18:50;;;;;;;;;;;6.70;99.90;;;;;;5104236;27;20423;-55
2022/09/29 06:21:30;;;;;;;;;;;6.70;99.90;;;;;;5119139;27;19912;-55
2022/09/29 06:24:10;;;;;;;;;;;6.80;99.90;;;;;;5104924;27;19926;-55
2022/09/29 06:26:50;;;;;;;;;;;6.90;99.90;;;;;;5123689;27;19931;-55
2022/09/29 06:29:29;;;;;;;;;;;7.00;99.90;;;;;;5124745;27;19915;-55
2022/09/29 06:32:09;;;;;;;;;;;7.00;99.90;;;;;;5113580;27;19912;-55
2022/09/29 06:37:47;;;;;;;;;;;7.00;99.90;;;;;;5125183;27;19912;-55
2022/09/29 06:40:26;;;;;;;;;;;7.00;99.90;;;;;;5111602;27;19957;-55
2022/09/29 06:43:06;;;;;;;;;;;7.10;99.90;;;;;;5125627;27;19918;-55
2022/09/29 06:45:46;;;;;;;;;;;7.10;99.90;;;;;;5104947;27;20355;-55
2022/09/29 06:48:28;;;;;;;;;;;7.20;99.90;;;;;;5104637;27;19958;-55
2022/09/29 06:51:09;;;;;;;;;;;7.30;99.90;;;;;;5104845;27;20381;-56
2022/09/29 06:53:49;;;;;;;;;;;7.50;99.90;;;;;;5105048;27;20373;-55
2022/09/29 06:56:30;;;;;;;;;;;7.50;99.90;;;;;;5124634;27;19916;-56
2022/09/29 06:59:10;;;;;;;;;;;7.50;99.90;;;;;;5103764;27;20327;-55
2022/09/29 07:01:50;;;;;;;;;;;7.50;99.90;;;;;;5115655;27;20382;-55
2022/09/29 07:04:30;;;;;;;;;;;7.60;99.90;;;;;;5125605;27;19912;-55
2022/09/29 07:07:11;;;;;;;;;;;7.60;99.90;;;;;;5125527;27;19915;-55
2022/09/29 07:09:51;;;;;;;;;;;7.50;99.90;;;;;;5123557;27;20422;-56
2022/09/29 07:12:31;;;;;;;;;;;7.40;99.90;;;;;;5110638;27;20561;-55
2022/09/29 07:15:11;;;;;;;;;;;7.40;99.90;;;;;;5125708;27;19912;-55
2022/09/29 07:17:52;;;;;;;;;;;7.60;99.90;;;;;;5146416;27;19916;-55
2022/09/29 07:20:35;;;;;;;;;;;7.70;99.90;;;;;;5124959;27;19912;-55
2022/09/29 07:23:15;;;;;;;;;;;7.80;99.90;;;;;;5125535;27;20388;-55
2022/09/29 07:25:55;;;;;;;;;;;7.80;99.90;;;;;;5103662;27;19916;-55
2022/09/29 07:28:35;;;;;;;;;;;7.90;99.90;;;;;;5125055;27;19912;-55
2022/09/29 07:31:15;;;;;;;;;;;7.90;99.90;;;;;;5125534;27;19916;-55
2022/09/29 07:33:56;;;;;;;;;;;7.90;99.90;;;;;;5105009;27;19916;-55
2022/09/29 07:36:37;;;;;;;;;;;8.00;99.90;;;;;;5104777;27;19916;-55
2022/09/29 07:39:17;;;;;;;;;;;8.00;99.90;;;;;;5110317;27;20314;-55
2022/09/29 07:41:57;;;;;;;;;;;8.20;99.90;;;;;;5104961;27;19926;-55
2022/09/29 07:44:37;;;;;;;;;;;8.30;99.90;;;;;;5125230;27;19915;-55
2022/09/29 07:47:16;;;;;;;;;;;8.50;99.90;;;;;;5125013;27;19915;-56
2022/09/29 07:49:56;;;;;;;;;;;8.70;99.90;;;;;;5158469;27;20136;-55
2022/09/29 07:52:36;;;;;;;;;;;8.60;99.90;;;;;;5165215;27;20322;-55
2022/09/29 07:55:16;;;;;;;;;;;8.40;99.90;;;;;;5105445;27;20430;-55
2022/09/29 07:57:56;;;;;;;;;;;8.20;99.90;;;;;;5104224;27;19912;-55
2022/09/29 08:00:36;;;;;;;;;;;8.30;99.90;;;;;;5125085;27;19911;-55
2022/09/29 08:03:18;;;;;;;;;;;8.40;99.90;;;;;;5125443;27;19912;-53
2022/09/29 08:05:59;;;;;;;;;;;8.50;99.90;;;;;;5125714;27;19946;-55
2022/09/29 08:08:39;;;;;;;;;;;8.60;99.90;;;;;;5105513;27;19920;-55
2022/09/29 08:11:19;;;;;;;;;;;8.70;99.90;;;;;;5105004;27;19916;-55
2022/09/29 08:14:00;;;;;;;;;;;8.90;99.90;;;;;;5125644;27;19912;-55
2022/09/29 08:16:39;;;;;;;;;;;9.20;99.90;;;;;;5165252;27;19911;-55
2022/09/29 08:19:19;;;;;;;;;;;9.50;99.90;;;;;;5125011;27;19911;-55
2022/09/29 08:21:59;;;;;;;;;;;9.80;99.90;;;;;;5125240;27;20336;-55
2022/09/29 08:24:39;;;;;;;;;;;10.00;99.90;;;;;;5104905;27;20177;-55
2022/09/29 08:27:19;;;;;;;;;;;10.30;99.90;;;;;;5084077;28;19930;-55
2022/09/29 08:29:59;;;;;;;;;;;10.50;99.90;;;;;;5104449;27;19961;-55
2022/09/29 08:32:39;;;;;;;;;;;10.80;99.90;;;;;;5109519;27;19912;-55
2022/09/29 08:35:18;;;;;;;;;;;11.10;99.90;;;;;;5104608;27;19922;-55
2022/09/29 08:38:01;;;;;;;;;;;11.20;99.90;;;;;;5187793;27;19915;-53
2022/09/29 08:40:41;;;;;;;;;;;11.20;99.90;;;;;;5091315;28;20388;-56
2022/09/29 08:43:24;;;;;;;;;;;11.40;99.90;;;;;;5125846;27;20280;-55
2022/09/29 08:46:05;;;;;;;;;;;11.60;99.90;;;;;;5125335;27;20319;-55
2022/09/29 08:48:46;;;;;;;;;;;11.90;99.90;;;;;;5124950;27;19919;-56
2022/09/29 08:51:29;;;;;;;;;;;12.20;99.90;;;;;;5125532;27;19916;-56
2022/09/29 08:54:26;;;;;;;;;;;12.40;99.90;;;;;;5105830;27;19916;-56
2022/09/29 08:57:06;;;;;;;;;;;12.50;99.90;;;;;;5104908;27;19912;-56
2022/09/29 08:59:51;;;;;;;;;;;12.00;99.90;;;;;;5084404;28;19912;-56
2022/09/29 09:02:47;;;;;;;;;;;11.80;99.90;;;;;;5110116;27;19912;-56
2022/09/29 09:05:34;;;;;;;;;;;11.90;99.90;;;;;;5125314;27;19915;-56
2022/09/29 09:08:18;;;;;;;;;;;12.00;99.90;;;;;;5161439;27;19915;-56
2022/09/29 09:11:05;;;;;;;;;;;12.00;99.90;;;;;;5083841;28;19917;-56
2022/09/29 09:13:52;;;;;;;;;;;11.90;99.90;;;;;;5104954;27;19953;-56
2022/09/29 09:16:37;;;;;;;;;;;11.90;99.90;;;;;;5104590;27;19945;-56
2022/09/29 09:19:29;;;;;;;;;;;11.80;99.90;;;;;;5124714;27;20441;-56
2022/09/29 09:22:14;;;;;;;;;;;11.60;99.90;;;;;;5104883;27;19942;-56
2022/09/29 09:24:57;;;;;;;;;;;11.40;99.90;;;;;;5103296;27;19926;-56
2022/09/29 09:27:40;;;;;;;;;;;11.20;99.90;;;;;;5104938;27;19926;-55
2022/09/29 09:30:21;;;;;;;;;;;11.40;99.90;;;;;;5104413;27;19926;-56
2022/09/29 09:33:02;;;;;;;;;;;11.50;99.90;;;;;;5125272;27;19912;-56
2022/09/29 09:35:44;;;;;;;;;;;11.80;99.90;;;;;;5104858;27;20331;-56
2022/09/29 09:38:26;;;;;;;;;;;12.30;99.90;;;;;;5105236;27;20351;-56
2022/09/29 09:41:07;;;;;;;;;;;12.60;99.90;;;;;;5104163;27;19930;-56
2022/09/29 09:43:49;;;;;;;;;;;12.80;99.90;;;;;;5104934;27;19930;-56
2022/09/29 09:46:31;;;;;;;;;;;12.90;99.90;;;;;;5105235;27;19912;-56
2022/09/29 09:49:14;;;;;;;;;;;13.10;99.90;;;;;;5124576;27;19911;-57
2022/09/29 09:51:59;;;;;;;;;;;13.20;99.90;;;;;;5115300;27;19930;-56
2022/09/29 09:54:42;;;;;;;;;;;13.10;99.90;;;;;;5104925;27;19969;-56
2022/09/29 09:57:31;;;;;;;;;;;13.00;99.90;;;;;;5125382;27;19916;-56
2022/09/29 10:00:13;;;;;;;;;;;12.70;99.90;;;;;;5103954;27;19926;-56
2022/09/29 10:02:54;;;;;;;;;;;13.00;99.90;;;;;;5080738;27;19954;-56
2022/09/29 10:05:37;;;;;;;;;;;13.30;99.90;;;;;;5104514;27;19930;-56
2022/09/29 10:08:22;;;;;;;;;;;13.60;99.90;;;;;;5125183;27;19912;-56
2022/09/29 10:11:03;;;;;;;;;;;13.60;99.90;;;;;;5104172;27;19926;-56
2022/09/29 10:13:43;;;;;;;;;;;13.60;99.90;;;;;;5124052;27;20153;-56
2022/09/29 10:16:27;;;;;;;;;;;13.70;99.90;;;;;;5104572;27;20344;-55
2022/09/29 10:19:07;;;;;;;;;;;14.00;99.90;;;;;;5104473;27;19930;-56
2022/09/29 10:21:47;;;;;;;;;;;14.10;99.90;;;;;;5085234;28;19916;-56
2022/09/29 10:24:29;;;;;;;;;;;14.10;99.90;;;;;;5124929;27;19912;-57
2022/09/29 10:27:10;;;;;;;;;;;14.20;99.90;;;;;;5123516;27;19911;-55
2022/09/29 10:29:51;;;;;;;;;;;14.50;99.90;;;;;;5145697;27;19911;-56
2022/09/29 10:32:36;;;;;;;;;;;14.50;99.90;;;;;;5111638;27;19912;-56
2022/09/29 10:35:19;;;;;;;;;;;14.00;99.90;;;;;;5127101;27;19911;-56
2022/09/29 10:38:02;;;;;;;;;;;14.10;99.90;;;;;;5106600;27;19920;-55
2022/09/29 10:40:53;;;;;;;;;;;14.40;99.90;;;;;;5134056;27;19912;-54
2022/09/29 10:43:36;;;;;;;;;;;14.80;99.90;;;;;;5106171;27;19926;-56
2022/09/29 10:46:38;;;;;;;;;;;14.90;99.90;;;;;;5085710;28;20317;-56
2022/09/29 10:49:19;;;;;;;;;;;15.00;99.90;;;;;;5085745;28;19912;-56
2022/09/29 10:52:02;;;;;;;;;;;15.10;99.90;;;;;;5115963;27;20423;-54
2022/09/29 10:54:53;;;;;;;;;;;15.00;99.90;;;;;;5126006;27;20320;-56
2022/09/29 10:57:34;;;;;;;;;;;15.30;99.90;;;;;;5126386;27;19912;-56
2022/09/29 11:00:28;;;;;;;;;;;15.80;99.90;;;;;;5126985;27;20377;-56
2022/09/29 11:03:17;;;;;;;;;;;16.00;99.90;;;;;;5096507;27;20376;-54
2022/09/29 11:06:00;;;;;;;;;;;16.20;99.90;;;;;;5106196;27;19912;-55
2022/09/29 11:08:57;;;;;;;;;;;16.20;99.90;;;;;;5105135;27;20361;-54
2022/09/29 11:11:38;;;;;;;;;;;16.30;99.90;;;;;;5085854;28;20378;-54
2022/09/29 11:14:25;;;;;;;;;;;16.10;99.90;;;;;;5106167;27;19945;-54
2022/09/29 11:17:20;;;;;;;;;;;16.00;99.90;;;;;;5126836;27;19945;-54
2022/09/29 11:20:02;;;;;;;;;;;16.10;99.90;;;;;;5105171;27;19912;-54
2022/09/29 11:22:55;;;;;;;;;;;16.30;99.90;;;;;;5085716;28;20188;-53
2022/09/29 11:25:57;;;;;;;;;;;16.40;99.90;;;;;;5126609;27;20434;-54
2022/09/29 11:29:03;;;;;;;;;;;16.10;99.90;;;;;;5126798;27;19916;-53
2022/09/29 11:31:56;;;;;;;;;;;15.80;99.90;;;;;;5118755;27;19912;-53
2022/09/29 11:34:53;;;;;;;;;;;15.80;99.90;;;;;;5187001;27;20319;-54
2022/09/29 11:37:40;;;;;;;;;;;16.20;99.90;;;;;;5127006;27;19912;-54
2022/09/29 11:40:22;;;;;;;;;;;16.10;99.90;;;;;;5140782;27;19933;-54
2022/09/29 11:43:07;;;;;;;;;;;16.30;99.90;;;;;;5125084;27;19911;-54
2022/09/29 11:45:54;;;;;;;;;;;16.40;99.90;;;;;;5124278;27;19946;-54
2022/09/29 11:48:47;;;;;;;;;;;16.60;99.90;;;;;;5105489;27;20381;-54
2022/09/29 11:51:30;;;;;;;;;;;16.90;99.90;;;;;;5125595;27;19912;-54
2022/09/29 11:54:19;;;;;;;;;;;17.00;99.90;;;;;;5106210;27;20184;-54
2022/09/29 11:57:04;;;;;;;;;;;17.00;99.90;;;;;;5106241;27;19912;-54
2022/09/29 11:59:50;;;;;;;;;;;17.00;99.90;;;;;;5125695;27;19923;-54
2022/09/29 12:02:43;;;;;;;;;;;17.10;99.90;;;;;;5111662;27;19916;-55
2022/09/29 12:05:25;;;;;;;;;;;17.20;99.90;;;;;;5126838;27;19912;-54
2022/09/29 12:08:13;;;;;;;;;;;17.60;99.90;;;;;;5106158;27;19926;-54
2022/09/29 12:11:03;;;;;;;;;;;17.80;99.90;;;;;;5092210;27;19916;-54
2022/09/29 12:13:50;;;;;;;;;;;17.70;99.90;;;;;;5147324;27;20372;-54
2022/09/29 12:16:32;;;;;;;;;;;17.70;99.90;;;;;;5126459;27;19915;-54
2022/09/29 12:19:14;;;;;;;;;;;17.80;99.90;;;;;;5124333;27;19918;-54
2022/09/29 12:21:55;;;;;;;;;;;17.70;99.90;;;;;;5126318;27;19918;-54
2022/09/29 12:24:36;;;;;;;;;;;17.40;99.90;;;;;;5126691;27;19916;-54
2022/09/29 12:27:19;;;;;;;;;;;17.40;99.90;;;;;;5127013;27;19915;-54
2022/09/29 12:30:02;;;;;;;;;;;17.20;99.90;;;;;;5126107;27;19912;-54
2022/09/29 12:32:50;;;;;;;;;;;17.10;99.90;;;;;;5110038;27;19912;-54
2022/09/29 12:35:35;;;;;;;;;;;17.00;99.90;;;;;;5126169;27;19915;-54
2022/09/29 12:38:19;;;;;;;;;;;16.80;99.90;;;;;;5127065;27;19912;-54
2022/09/29 12:41:06;;;;;;;;;;;17.00;99.90;;;;;;5126422;27;20344;-54
2022/09/29 12:43:50;;;;;;;;;;;16.80;99.90;;;;;;5125822;27;20141;-54
2022/09/29 12:46:34;;;;;;;;;;;16.60;99.90;;;;;;5105923;27;20316;-54
2022/09/29 12:49:19;;;;;;;;;;;16.30;99.90;;;;;;5106256;27;20320;-54
2022/09/29 12:52:01;;;;;;;;;;;16.50;99.90;;;;;;5116233;27;19912;-54
2022/09/29 12:54:43;;;;;;;;;;;16.50;99.90;;;;;;5124999;27;20365;-54
2022/09/29 12:57:26;;;;;;;;;;;16.60;99.90;;;;;;5106666;27;19912;-54
2022/09/29 13:00:08;;;;;;;;;;;16.50;99.90;;;;;;5126122;27;19916;-54
2022/09/29 13:03:04;;;;;;;;;;;16.20;99.90;;;;;;5105887;27;19926;-53
2022/09/29 13:06:07;;;;;;;;;;;15.70;99.90;;;;;;5106273;27;19926;-54
2022/09/29 13:08:52;;;;;;;;;;;15.30;99.90;;;;;;5107881;27;20483;-53
2022/09/29 13:11:50;;;;;;;;;;;14.80;99.90;;;;;;5119528;27;19920;-52
2022/09/29 13:14:39;;;;;;;;;;;14.60;99.90;;;;;;5105748;27;20327;-54
2022/09/29 13:17:28;;;;;;;;;;;14.60;99.90;;;;;;5164157;27;19911;-53
2022/09/29 13:20:28;;;;;;;;;;;14.60;99.90;;;;;;5162122;27;19924;-54
2022/09/29 13:23:16;;;;;;;;;;;14.80;99.90;;;;;;5126895;27;19918;-53
2022/09/29 13:26:01;;;;;;;;;;;15.00;99.90;;;;;;5106287;27;19920;-54
2022/09/29 13:28:43;;;;;;;;;;;15.30;99.90;;;;;;5126863;27;19912;-54
2022/09/29 13:31:26;;;;;;;;;;;15.40;98.90;;;;;;5121664;27;19915;-54
2022/09/29 13:34:16;;;;;;;;;;;15.60;99.10;;;;;;5106871;27;19954;-54
2022/09/29 13:37:04;;;;;;;;;;;15.80;97.10;;;;;;5126970;27;20389;-54
2022/09/29 13:39:51;;;;;;;;;;;16.00;99.90;;;;;;5112899;27;19942;-54
2022/09/29 13:42:41;;;;;;;;;;;16.10;99.90;;;;;;5126776;27;19911;-54
2022/09/29 13:45:39;;;;;;;;;;;16.10;97.40;;;;;;5126755;27;19911;-54
2022/09/29 13:48:49;;;;;;;;;;;16.20;95.20;;;;;;5126805;27;19912;-54
2022/09/29 13:51:41;;;;;;;;;;;16.10;94.40;;;;;;5120189;27;19912;-54
2022/09/29 13:54:23;;;;;;;;;;;16.00;94.10;;;;;;5106452;27;19912;-54
2022/09/29 13:57:24;;;;;;;;;;;15.80;96.70;;;;;;5126539;27;20320;-54
2022/09/29 14:00:20;;;;;;;;;;;15.70;98.80;;;;;;5161332;27;19911;-54
2022/09/29 14:03:06;;;;;;;;;;;15.40;99.40;;;;;;5106540;27;19912;-54
2022/09/29 14:05:52;;;;;;;;;;;15.30;99.90;;;;;;5106428;27;20313;-54
2022/09/29 14:08:36;;;;;;;;;;;15.20;99.80;;;;;;5127083;27;19925;-54
2022/09/29 14:11:19;;;;;;;;;;;15.20;99.90;;;;;;5106217;27;19916;-54
2022/09/29 14:14:02;;;;;;;;;;;15.30;99.90;;;;;;5104673;27;19912;-54
2022/09/29 14:16:52;;;;;;;;;;;15.60;99.90;;;;;;5105920;27;19913;-55
2022/09/29 14:19:38;;;;;;;;;;;15.90;99.30;;;;;;5125323;27;19926;-54
2022/09/29 14:22:35;;;;;;;;;;;16.10;98.40;;;;;;5105867;27;19957;-54
2022/09/29 14:25:29;;;;;;;;;;;16.10;99.10;;;;;;5105410;27;20431;-54
2022/09/29 14:28:10;;;;;;;;;;;16.10;94.60;;;;;;5155815;27;20397;-54
2022/09/29 14:30:51;;;;;;;;;;;16.40;99.90;;;;;;5145958;27;19923;-54
2022/09/29 14:33:35;;;;;;;;;;;16.50;98.60;;;;;;5139183;27;19918;-54
2022/09/29 14:36:17;;;;;;;;;;;16.60;96.60;;;;;;5127006;27;19912;-56
2022/09/29 14:38:58;;;;;;;;;;;16.50;96.00;;;;;;5109921;27;19926;-56
2022/09/29 14:41:41;;;;;;;;;;;16.30;95.10;;;;;;5119591;27;19912;-55
2022/09/29 14:44:23;;;;;;;;;;;16.00;95.20;;;;;;5127088;27;19915;-55
2022/09/29 14:53:34;;;;;;;;;;;15.70;94.60;;;;;;5163511;22;19937;-57
2022/09/29 14:56:24;;;;;;;;;;;15.80;99.90;;;;;;5105229;27;19920;-57
2022/09/29 14:59:12;;;;;;;;;;;15.80;99.90;;;;;;5104927;27;19912;-57
2022/09/29 15:02:05;;;;;;;;;;;15.90;99.90;;;;;;5105371;27;19916;-57
2022/09/29 15:04:45;;;;;;;;;;;15.80;99.90;;;;;;5105280;27;19926;-57
2022/09/29 15:07:27;;;;;;;;;;;15.60;99.90;;;;;;5163680;27;19915;-57
2022/09/29 15:10:19;;;;;;;;;;;15.40;99.90;;;;;;5111086;27;19930;-55
2022/09/29 15:13:13;;;;;;;;;;;15.20;99.90;;;;;;5105223;27;19927;-57
2022/09/29 15:15:57;;;;;;;;;;;15.00;99.90;;;;;;5125434;27;20319;-57
2022/09/29 15:18:56;;;;;;;;;;;14.80;99.90;;;;;;5124164;27;19912;-54
2022/09/29 15:21:41;;;;;;;;;;;14.80;99.90;;;;;;5126054;27;19915;-56
2022/09/29 15:24:27;;;;;;;;;;;14.90;99.90;;;;;;5105471;27;20331;-56
2022/09/29 15:27:12;;;;;;;;;;;15.00;99.90;;;;;;5104808;27;19916;-56
2022/09/29 15:29:54;;;;;;;;;;;14.90;99.90;;;;;;5105031;27;20324;-56
2022/09/29 15:32:35;;;;;;;;;;;14.70;99.90;;;;;;5125905;27;19916;-55
2022/09/29 15:35:15;;;;;;;;;;;14.50;99.90;;;;;;5084757;28;19912;-57
2022/09/29 15:38:16;;;;;;;;;;;14.30;99.90;;;;;;5084869;28;19916;-57
2022/09/29 15:40:59;;;;;;;;;;;14.00;99.90;;;;;;5125385;27;19912;-57
2022/09/29 15:43:41;;;;;;;;;;;13.60;99.90;;;;;;5105356;27;19954;-57
2022/09/29 15:46:22;;;;;;;;;;;13.30;99.90;;;;;;5105143;27;19912;-57
2022/09/29 15:49:12;;;;;;;;;;;13.10;99.90;;;;;;5102913;27;20292;-57
2022/09/29 15:51:56;;;;;;;;;;;12.90;99.90;;;;;;5105910;27;19912;-57
2022/09/29 15:54:38;;;;;;;;;;;12.70;99.90;;;;;;5111053;27;19912;-57
2022/09/29 15:57:45;;;;;;;;;;;12.40;99.90;;;;;;5106764;27;20434;-56
2022/09/29 16:00:51;;;;;;;;;;;12.20;99.90;;;;;;5106441;27;19912;-57
2022/09/29 16:03:39;;;;;;;;;;;12.00;99.90;;;;;;5119969;27;19916;-57
2022/09/29 16:06:25;;;;;;;;;;;11.80;99.90;;;;;;5105691;27;19912;-57
2022/09/29 16:09:06;;;;;;;;;;;11.60;99.90;;;;;;5110656;27;19920;-55